Time;durP1;ratioP1;P1;durP2;ratioP2;P2;SDS_P1;SDS_P2;PMS_P1;PMS_P2;Temp;Humidity;BMP_temperature;BMP_pressure;BME280_temperature;BME280_humidity;BME280_pressure;Samples;Min_cycle;Max_cycle;Signal;HPM_P1;HPM_P2
2022/11/30 00:00:37;;;;;;;69.47;39.60;;;;;;;5.78;100.00;67407.13;4945890;28;20098;-85
2022/11/30 00:03:03;;;;;;;68.25;39.55;;;;;;;;;;4951329;28;20130;-85
2022/11/30 00:05:28;;;;;;;68.82;40.35;;;;;;;;;;4951642;28;20054;-85
2022/11/30 00:07:53;;;;;;;66.78;39.53;;;;;;;5.76;100.00;67409.56;4950827;28;20039;-85
2022/11/30 00:10:19;;;;;;;67.65;38.30;;;;;;;;;;4959420;28;20047;-85
2022/11/30 00:12:44;;;;;;;68.50;39.95;;;;;;;;;;4954259;28;20114;-85
2022/11/30 00:15:13;;;;;;;67.38;40.13;;;;;;;5.73;100.00;67411.47;4952708;28;20047;-85
2022/11/30 00:17:38;;;;;;;67.72;41.20;;;;;;;;;;4956933;28;20038;-85
2022/11/30 00:20:05;;;;;;;67.45;39.90;;;;;;;5.77;100.00;67410.69;4949059;28;20039;-85
2022/11/30 00:22:30;;;;;;;68.85;39.15;;;;;;;5.79;100.00;67410.88;4950783;28;20094;-85
2022/11/30 00:24:58;;;;;;;65.53;40.22;;;;;;;;;;4950514;28;20059;-86
2022/11/30 00:27:23;;;;;;;70.43;42.35;;;;;;;;;;4950143;28;20518;-86
2022/11/30 00:29:49;;;;;;;69.43;39.33;;;;;;;5.75;100.00;67409.00;4948675;28;20042;-85
2022/11/30 00:32:14;;;;;;;68.13;41.42;;;;;;;;;;4946527;28;20376;-86
2022/11/30 00:34:39;;;;;;;65.63;40.53;;;;;;;5.76;100.00;67406.94;4948877;28;20163;-85
2022/11/30 00:37:05;;;;;;;71.28;42.25;;;;;;;5.77;100.00;67410.69;4947606;28;20130;-86
2022/11/30 00:39:30;;;;;;;70.40;39.83;;;;;;;;;;4946932;28;20043;-85
2022/11/30 00:41:55;;;;;;;67.43;39.27;;;;;;;5.77;100.00;67415.97;4948542;28;20043;-84
2022/11/30 00:44:20;;;;;;;62.00;35.90;;;;;;;5.80;100.00;67425.22;4947781;28;20287;-85
2022/11/30 00:46:46;;;;;;;66.55;37.75;;;;;;;5.77;100.00;67410.69;4948008;28;20131;-85
2022/11/30 00:49:11;;;;;;;66.32;37.58;;;;;;;5.80;100.00;67419.94;4949182;28;20074;-85
2022/11/30 00:51:37;;;;;;;68.95;39.15;;;;;;;;;;4979706;28;20059;-85
2022/11/30 00:54:03;;;;;;;66.25;40.08;;;;;;;;;;4949299;28;20035;-85
2022/11/30 00:56:28;;;;;;;64.88;40.00;;;;;;;;;;4940433;28;20051;-85
2022/11/30 00:58:53;;;;;;;68.90;41.42;;;;;;;5.77;100.00;67410.69;4949789;28;20043;-85
2022/11/30 01:01:19;;;;;;;65.20;39.42;;;;;;;5.75;100.00;67405.78;4963544;28;20694;-86
2022/11/30 01:03:44;;;;;;;62.65;39.58;;;;;;;5.70;100.00;67408.63;4950682;28;20047;-85
2022/11/30 01:06:10;;;;;;;62.78;38.17;;;;;;;;;;4949769;28;20097;-85
2022/11/30 01:08:35;;;;;;;60.15;36.88;;;;;;;5.77;100.00;67410.69;4952550;28;20038;-85
2022/11/30 01:11:13;;;;;;;62.30;37.58;;;;;;;5.73;100.00;67412.03;4961615;28;20043;-85
2022/11/30 01:13:39;;;;;;;63.20;36.47;;;;;;;5.77;100.00;67408.63;4942886;28;20098;-86
2022/11/30 01:16:14;;;;;;;59.95;37.55;;;;;;;5.76;100.00;67415.41;4948089;28;20447;-85
2022/11/30 01:18:41;;;;;;;62.40;36.53;;;;;;;5.76;100.00;67414.84;4949439;28;20032;-86
2022/11/30 01:21:08;;;;;;;58.05;37.35;;;;;;;5.74;100.00;67404.66;4948717;28;20078;-86
2022/11/30 01:23:34;;;;;;;59.97;37.75;;;;;;;5.73;100.00;67406.75;4949758;28;20051;-86
2022/11/30 01:25:59;;;;;;;55.60;35.58;;;;;;;5.80;100.00;67414.09;4947757;28;20693;-85
2022/11/30 01:28:25;;;;;;;57.00;34.90;;;;;;;5.78;100.00;67411.81;4949682;28;20043;-86
2022/11/30 01:30:58;;;;;;;59.92;37.63;;;;;;;5.79;100.00;67418.81;4947211;28;20049;-85
2022/11/30 01:33:24;;;;;;;60.47;37.97;;;;;;;5.81;100.00;67420.50;4951344;28;20051;-85
2022/11/30 01:36:09;;;;;;;56.75;35.70;;;;;;;;;;4952263;28;20043;-86
2022/11/30 01:38:36;;;;;;;61.17;36.75;;;;;;;;;;4929848;29;20406;-85
2022/11/30 01:41:03;;;;;;;58.55;36.75;;;;;;;5.78;100.00;67409.19;4950472;28;20134;-85
2022/11/30 01:43:39;;;;;;;58.03;34.67;;;;;;;;;;4949438;28;20094;-86
2022/11/30 01:46:16;;;;;;;58.38;35.90;;;;;;;5.74;100.00;67412.59;4947591;28;20047;-85
2022/11/30 01:48:41;;;;;;;58.55;36.58;;;;;;;;;;4939714;28;20051;-85
2022/11/30 01:51:07;;;;;;;58.53;38.28;;;;;;;5.68;100.00;67398.44;4946247;28;20718;-86
2022/11/30 01:53:32;;;;;;;58.72;35.75;;;;;;;5.71;100.00;67404.47;4948985;28;20130;-85
2022/11/30 01:55:57;;;;;;;58.72;36.60;;;;;;;;;;4949006;28;20495;-85
2022/11/30 01:58:26;;;;;;;62.30;35.20;;;;;;;5.78;100.00;67412.41;4951391;28;20131;-86
2022/11/30 02:00:52;;;;;;;56.30;36.60;;;;;;;;;;4955646;28;20039;-85
2022/11/30 02:03:41;;;;;;;57.72;36.50;;;;;;;5.74;100.00;67413.16;4952100;28;20171;-85
2022/11/30 02:06:07;;;;;;;58.97;34.85;;;;;;;5.74;100.00;67407.88;4951670;28;20043;-86
2022/11/30 02:08:32;;;;;;;61.50;38.33;;;;;;;;;;4952352;28;20380;-85
2022/11/30 02:11:02;;;;;;;59.67;37.67;;;;;;;5.72;100.00;67405.59;4957636;28;20046;-85
2022/11/30 02:13:28;;;;;;;60.85;35.40;;;;;;;5.77;100.00;67408.63;4956314;28;20114;-85
2022/11/30 02:16:16;;;;;;;56.28;32.35;;;;;;;5.76;100.00;67414.84;4966642;28;20130;-85
2022/11/30 02:19:03;;;;;;;59.50;29.75;;;;;;;5.66;100.00;67399.38;4949884;29;20051;-85
2022/11/30 02:21:40;;;;;;;59.45;34.95;;;;;;;;;;4949146;28;20043;-85
2022/11/30 02:24:34;;;;;;;54.20;30.98;;;;;;;5.72;100.00;67405.03;4950721;28;20035;-86
2022/11/30 02:27:13;;;;;;;61.40;36.70;;;;;;;;;;4950514;28;20093;-85
2022/11/30 02:29:50;;;;;;;;;;;;;;;5.75;100.00;67408.44;4948787;28;20511;-85
2022/11/30 02:32:24;;;;;;;62.85;36.95;;;;;;;5.72;100.00;67405.03;4961650;28;19949;-86
2022/11/30 02:34:50;;;;;;;64.60;36.78;;;;;;;;;;4951536;28;20462;-85
2022/11/30 02:37:17;;;;;;;61.90;36.15;;;;;;;5.73;100.00;67411.47;4981487;28;20130;-85
2022/11/30 02:39:42;;;;;;;62.60;35.78;;;;;;;5.73;100.00;67411.47;4967189;28;20415;-85
2022/11/30 02:42:12;;;;;;;60.47;32.65;;;;;;;5.71;100.00;67409.75;4967334;28;20102;-86
2022/11/30 02:44:40;;;;;;;62.63;36.67;;;;;;;5.69;100.00;67401.66;4966339;28;20039;-85
2022/11/30 02:47:26;;;;;;;56.47;32.63;;;;;;;5.72;100.00;67410.31;4950084;28;20074;-85
2022/11/30 02:49:54;;;;;;;67.53;36.83;;;;;;;5.72;100.00;67405.59;4952063;28;20404;-85
2022/11/30 02:52:24;;;;;;;57.43;31.07;;;;;;;5.72;100.00;67410.31;4949189;28;20045;-85
2022/11/30 02:54:50;;;;;;;61.22;34.97;;;;;;;;;;4952296;28;20039;-85
2022/11/30 02:57:15;;;;;;;61.50;36.55;;;;;;;5.72;100.00;67405.03;4950403;28;20463;-86
2022/11/30 02:59:41;;;;;;;66.82;37.13;;;;;;;5.66;100.00;67404.09;4983350;28;20047;-85
2022/11/30 03:02:06;;;;;;;60.95;35.05;;;;;;;;;;4966461;28;20047;-85
2022/11/30 03:04:31;;;;;;;61.40;36.45;;;;;;;5.66;100.00;67404.66;4950510;28;20079;-85
2022/11/30 03:06:57;;;;;;;60.35;36.70;;;;;;;5.66;100.00;67399.38;4948305;28;20518;-85
2022/11/30 03:09:22;;;;;;;63.88;37.45;;;;;;;5.65;100.00;67402.97;4951343;28;20043;-85
2022/11/30 03:11:47;;;;;;;66.18;36.10;;;;;;;;;;4950975;28;20054;-85
2022/11/30 03:14:12;;;;;;;65.55;38.10;;;;;;;;;;4950141;28;20039;-85
2022/11/30 03:16:38;;;;;;;61.55;34.75;;;;;;;5.61;100.00;67390.53;4951183;28;20047;-85
2022/11/30 03:19:04;;;;;;;67.90;39.22;;;;;;;;;;4950870;28;20039;-85
2022/11/30 03:21:29;;;;;;;64.28;38.20;;;;;;;5.61;100.00;67393.16;4949875;28;20129;-85
2022/11/30 03:23:55;;;;;;;63.72;37.05;;;;;;;;;;4950937;28;20792;-85
2022/11/30 03:26:20;;;;;;;62.72;36.08;;;;;;;5.64;100.00;67397.13;4950709;28;20054;-85
2022/11/30 03:28:45;;;;;;;67.35;38.80;;;;;;;5.61;100.00;67393.75;4951909;28;20039;-85
2022/11/30 03:31:12;;;;;;;61.05;37.50;;;;;;;5.59;100.00;67396.75;4949043;28;20664;-86
2022/11/30 03:33:37;;;;;;;61.75;33.80;;;;;;;;;;4950867;28;20070;-85
2022/11/30 03:36:08;;;;;;;66.25;39.50;;;;;;;5.60;100.00;67389.97;4949279;28;20196;-85
2022/11/30 03:38:34;;;;;;;64.35;38.78;;;;;;;5.57;100.00;67394.50;4951880;28;20055;-85
2022/11/30 03:41:04;;;;;;;67.20;38.92;;;;;;;;;;4948924;29;20051;-86
2022/11/30 03:43:29;;;;;;;68.35;40.17;;;;;;;5.56;100.00;67387.53;4949839;28;20043;-85
2022/11/30 03:45:54;;;;;;;62.53;37.78;;;;;;;5.58;100.00;67395.06;4950070;28;20495;-85
2022/11/30 03:48:21;;;;;;;65.78;38.25;;;;;;;5.57;100.00;67389.22;4949917;28;20071;-85
2022/11/30 03:50:48;;;;;;;68.43;40.55;;;;;;;5.56;100.00;67387.53;4950715;28;20063;-85
2022/11/30 03:53:18;;;;;;;67.03;40.03;;;;;;;5.58;100.00;67395.06;4950068;28;20447;-85
2022/11/30 03:55:43;;;;;;;67.03;40.42;;;;;;;5.59;100.00;67396.22;4951275;28;20046;-86
2022/11/30 03:58:09;;;;;;;68.22;39.13;;;;;;;;;;4949913;28;20399;-85
2022/11/30 04:00:34;;;;;;;67.47;42.90;;;;;;;5.55;100.00;67386.97;4951457;28;20047;-86
2022/11/30 04:02:59;;;;;;;65.65;40.58;;;;;;;;;;4950455;28;20039;-85
2022/11/30 04:05:25;;;;;;;69.10;41.53;;;;;;;5.54;100.00;67385.84;4949112;28;20062;-85
2022/11/30 04:07:50;;;;;;;65.82;42.20;;;;;;;;;;4951293;28;20110;-86
2022/11/30 04:10:36;;;;;;;66.65;42.13;;;;;;;;;;4947145;28;20072;-85
2022/11/30 04:13:01;;;;;;;72.85;43.97;;;;;;;;;;4946205;28;20423;-85
2022/11/30 04:15:27;;;;;;;66.18;39.75;;;;;;;5.51;100.00;67389.81;4946902;28;20051;-85
2022/11/30 04:17:52;;;;;;;66.57;42.10;;;;;;;5.54;100.00;67391.13;4949747;28;20639;-85
2022/11/30 04:20:17;;;;;;;67.65;40.70;;;;;;;;;;4952275;28;20035;-85
2022/11/30 04:22:43;;;;;;;72.45;43.60;;;;;;;5.51;100.00;67387.16;4949812;28;20039;-85
2022/11/30 04:25:08;;;;;;;69.13;39.70;;;;;;;;;;4947611;28;20066;-85
2022/11/30 04:27:33;;;;;;;69.88;42.88;;;;;;;5.51;100.00;67382.44;4953014;28;20575;-85
2022/11/30 04:29:59;;;;;;;71.25;42.00;;;;;;;5.51;100.00;67382.44;4948269;28;20054;-86
2022/11/30 04:32:24;;;;;;;71.85;43.03;;;;;;;;;;4950264;28;20043;-85
2022/11/30 04:34:49;;;;;;;75.35;42.25;;;;;;;5.51;100.00;67382.44;4948763;28;20150;-86
2022/11/30 04:37:14;;;;;;;78.32;43.78;;;;;;;;;;4948121;28;20050;-86
2022/11/30 04:39:39;;;;;;;76.20;44.97;;;;;;;;;;4948872;28;21578;-86
2022/11/30 04:42:05;;;;;;;76.65;44.55;;;;;;;5.50;100.00;67380.75;4952467;28;20426;-86
2022/11/30 04:44:30;;;;;;;73.88;42.65;;;;;;;;;;4948455;28;20554;-85
2022/11/30 04:46:55;;;;;;;80.68;40.40;;;;;;;5.49;100.00;67379.63;4954121;28;20109;-85
2022/11/30 04:49:21;;;;;;;72.38;43.33;;;;;;;5.47;100.00;67377.94;4946881;28;20047;-85
2022/11/30 04:51:46;;;;;;;76.03;42.10;;;;;;;5.48;100.00;67379.06;4950313;28;20038;-85
2022/11/30 04:54:11;;;;;;;75.57;42.58;;;;;;;5.47;100.00;67385.84;4950974;28;20652;-85
2022/11/30 04:56:37;;;;;;;75.78;40.15;;;;;;;;;;4950512;28;20435;-85
2022/11/30 04:59:02;;;;;;;77.70;38.53;;;;;;;5.49;100.00;67379.63;4949087;28;20039;-85
2022/11/30 05:01:27;;;;;;;77.05;44.53;;;;;;;;;;4954568;28;20058;-85
2022/11/30 05:03:53;;;;;;;76.53;42.67;;;;;;;5.45;100.00;67375.09;4947091;28;20043;-85
2022/11/30 05:06:18;;;;;;;70.38;42.25;;;;;;;5.44;100.00;67369.25;4945274;28;20043;-85
2022/11/30 05:08:44;;;;;;;78.35;42.47;;;;;;;5.46;100.00;67376.78;4948519;28;20039;-86
2022/11/30 05:11:09;;;;;;;74.32;39.95;;;;;;;5.45;100.00;67375.66;4949962;28;20043;-86
2022/11/30 05:13:34;;;;;;;79.57;44.00;;;;;;;5.42;100.00;67370.19;4949076;28;20051;-86
2022/11/30 05:16:00;;;;;;;81.07;43.30;;;;;;;5.41;100.00;67369.06;4951744;28;20410;-85
2022/11/30 05:18:25;;;;;;;86.00;43.97;;;;;;;;;;4949652;28;20086;-85
2022/11/30 05:20:51;;;;;;;81.00;43.97;;;;;;;5.42;100.00;67378.13;4950625;28;20138;-86
2022/11/30 05:23:17;;;;;;;84.15;44.10;;;;;;;;;;4952804;28;20105;-84
2022/11/30 05:25:43;;;;;;;81.82;45.45;;;;;;;5.45;100.00;67375.66;4953944;28;20420;-84
2022/11/30 05:28:09;;;;;;;80.35;42.53;;;;;;;5.43;100.00;67381.31;4957966;28;20031;-83
2022/11/30 05:30:34;;;;;;;81.28;43.10;;;;;;;5.43;100.00;67373.41;4946798;28;20055;-84
2022/11/30 05:32:59;;;;;;;79.22;43.75;;;;;;;;;;4936142;28;20047;-85
2022/11/30 05:35:25;;;;;;;78.57;43.28;;;;;;;5.43;100.00;67373.41;4942182;28;20047;-85
2022/11/30 05:37:50;;;;;;;80.68;42.72;;;;;;;;;;4946702;28;20043;-84
2022/11/30 05:40:15;;;;;;;80.95;42.60;;;;;;;;;;4964961;28;20534;-84
2022/11/30 05:42:40;;;;;;;83.72;44.30;;;;;;;5.48;100.00;67379.06;4945460;28;20055;-84
2022/11/30 05:45:06;;;;;;;77.90;43.28;;;;;;;5.47;100.00;67377.94;4951328;28;20123;-84
2022/11/30 05:47:31;;;;;;;79.43;38.28;;;;;;;;;;4969772;28;20047;-84
2022/11/30 05:49:57;;;;;;;82.07;44.97;;;;;;;;;;4960501;28;20443;-84
2022/11/30 05:52:25;;;;;;;77.32;44.42;;;;;;;5.44;100.00;67379.81;4949563;28;20035;-84
2022/11/30 05:54:50;;;;;;;74.75;41.70;;;;;;;5.43;100.00;67379.25;4944960;28;20039;-84
2022/11/30 05:57:15;;;;;;;83.60;44.35;;;;;;;;;;4943658;28;20043;-84
2022/11/30 05:59:40;;;;;;;77.50;43.08;;;;;;;;;;4940482;28;20482;-84
2022/11/30 06:02:06;;;;;;;83.60;42.30;;;;;;;;;;4944124;28;20176;-84
2022/11/30 06:04:32;;;;;;;86.97;45.33;;;;;;;5.51;100.00;67381.88;4941060;28;20043;-84
2022/11/30 06:06:58;;;;;;;81.72;42.88;;;;;;;5.50;100.00;67381.31;4977647;28;20046;-84
2022/11/30 06:09:23;;;;;;;84.97;44.00;;;;;;;;;;4951041;28;20039;-84
2022/11/30 06:11:49;;;;;;;81.40;44.17;;;;;;;5.51;100.00;67382.44;4961579;28;20050;-84
2022/11/30 06:14:14;;;;;;;83.68;41.88;;;;;;;;;;4946784;28;20043;-84
2022/11/30 06:16:39;;;;;;;83.78;44.47;;;;;;;;;;4946177;28;20158;-84
2022/11/30 06:19:05;;;;;;;82.65;42.65;;;;;;;5.54;100.00;67391.13;4969358;28;20046;-84
2022/11/30 06:21:30;;;;;;;88.28;46.13;;;;;;;5.49;100.00;67380.19;4951927;28;20043;-84
2022/11/30 06:23:56;;;;;;;85.45;46.53;;;;;;;5.51;100.00;67387.72;4947052;28;20134;-85
2022/11/30 06:26:21;;;;;;;89.78;45.08;;;;;;;5.51;100.00;67382.44;4945413;28;20242;-85
2022/11/30 06:28:47;;;;;;;89.53;43.22;;;;;;;5.53;100.00;67390.00;4945226;28;20106;-85
2022/11/30 06:31:12;;;;;;;92.78;43.58;;;;;;;5.50;100.00;67386.59;4947421;28;20067;-85
2022/11/30 06:33:37;;;;;;;86.38;44.38;;;;;;;;;;4948382;28;20531;-85
2022/11/30 06:36:03;;;;;;;90.47;45.08;;;;;;;5.50;100.00;67381.31;4950744;28;20046;-85
2022/11/30 06:38:29;;;;;;;87.82;45.95;;;;;;;;;;4955396;28;20462;-85
2022/11/30 06:40:54;;;;;;;88.13;45.83;;;;;;;5.50;100.00;67386.59;4955374;28;20047;-85
2022/11/30 06:43:19;;;;;;;87.32;45.55;;;;;;;5.50;100.00;67386.03;4949759;28;20114;-85
2022/11/30 06:45:45;;;;;;;84.10;45.80;;;;;;;;;;4962078;28;20066;-84
2022/11/30 06:48:11;;;;;;;90.65;43.75;;;;;;;5.53;100.00;67390.00;4964801;28;20047;-86
2022/11/30 06:50:37;;;;;;;86.43;46.20;;;;;;;5.55;100.00;67392.25;4956067;28;20039;-86
2022/11/30 06:53:03;;;;;;;83.38;43.13;;;;;;;5.54;100.00;67390.56;4950479;28;20109;-85
2022/11/30 06:55:31;;;;;;;90.05;44.78;;;;;;;5.49;100.00;67380.19;4964708;28;20043;-86
2022/11/30 06:58:07;;;;;;;84.83;45.00;;;;;;;5.47;100.00;67385.84;4950365;28;20039;-86
2022/11/30 07:00:32;;;;;;;91.88;47.63;;;;;;;;;;4950751;28;20035;-85
2022/11/30 07:02:57;;;;;;;89.85;48.78;;;;;;;;;;4951165;28;20493;-85
2022/11/30 07:05:23;;;;;;;101.78;53.65;;;;;;;;;;4950443;28;20078;-86
2022/11/30 07:07:48;;;;;;;94.93;48.65;;;;;;;5.49;100.00;67379.63;4950060;28;20112;-86
2022/11/30 07:10:14;;;;;;;94.05;48.95;;;;;;;5.46;100.00;67382.06;4950813;28;20491;-86
2022/11/30 07:12:39;;;;;;;92.13;47.38;;;;;;;5.44;100.00;67374.53;4951088;28;20415;-85
2022/11/30 07:15:08;;;;;;;89.03;47.97;;;;;;;5.42;100.00;67372.28;4950187;28;20130;-85
2022/11/30 07:17:33;;;;;;;106.97;54.72;;;;;;;5.43;100.00;67373.41;4950015;28;20523;-85
2022/11/30 07:19:58;;;;;;;110.22;56.40;;;;;;;5.42;100.00;67372.28;4950748;28;20126;-85
2022/11/30 07:22:24;;;;;;;106.43;56.97;;;;;;;;;;4949510;28;20039;-85
2022/11/30 07:27:36;;;;;;;108.35;51.67;;;;;;;5.42;100.00;67372.28;4947456;28;20046;-85
2022/11/30 07:30:01;;;;;;;107.88;57.53;;;;;;;5.40;100.00;67370.00;4951446;28;20051;-85
2022/11/30 07:32:26;;;;;;;104.28;51.38;;;;;;;;;;4949301;28;20150;-85
2022/11/30 07:34:52;;;;;;;112.47;59.25;;;;;;;5.44;100.00;67379.81;4948855;28;20071;-85
2022/11/30 07:37:17;;;;;;;100.18;51.60;;;;;;;;;;4961703;28;20066;-85
2022/11/30 07:39:42;;;;;;;96.53;52.30;;;;;;;5.42;100.00;67372.28;4949874;28;20090;-85
2022/11/30 07:42:08;;;;;;;97.55;48.30;;;;;;;5.41;100.00;67376.44;4949546;28;20039;-84
2022/11/30 07:44:33;;;;;;;90.47;45.08;;;;;;;5.41;100.00;67371.16;4950341;28;20047;-85
2022/11/30 07:47:01;;;;;;;111.50;62.22;;;;;;;5.41;100.00;67371.16;4949258;28;20363;-85
2022/11/30 07:49:26;;;;;;;95.32;49.92;;;;;;;;;;4950579;28;20051;-85
2022/11/30 07:51:51;;;;;;;93.47;49.90;;;;;;;5.38;100.00;67368.34;4951954;28;20204;-85
2022/11/30 07:54:17;;;;;;;98.30;47.92;;;;;;;5.42;100.00;67370.19;4958849;28;20039;-84
2022/11/30 07:56:42;;;;;;;93.38;43.90;;;;;;;5.39;100.00;67374.16;4942272;28;20058;-84
2022/11/30 07:59:08;;;;;;;92.65;48.33;;;;;;;;;;4947562;28;20050;-85
2022/11/30 08:01:33;;;;;;;100.20;50.05;;;;;;;;;;4934905;28;20055;-83
2022/11/30 08:03:59;;;;;;;94.40;50.47;;;;;;;5.39;100.00;67368.88;4928161;28;20585;-84
2022/11/30 08:06:26;;;;;;;95.22;49.67;;;;;;;5.39;100.00;67369.44;4927432;28;20047;-84
2022/11/30 08:08:56;;;;;;;89.93;48.85;;;;;;;5.40;100.00;67370.56;4927005;28;20052;-84
2022/11/30 08:11:25;;;;;;;91.20;49.08;;;;;;;5.45;100.00;67375.66;4925403;28;20062;-84
2022/11/30 08:13:50;;;;;;;89.13;47.13;;;;;;;;;;4925442;28;20555;-84
2022/11/30 08:16:18;;;;;;;91.55;47.00;;;;;;;5.43;100.00;67371.31;4925660;28;20059;-84
2022/11/30 08:18:44;;;;;;;84.65;43.78;;;;;;;5.43;100.00;67373.41;4927985;28;20496;-84
2022/11/30 08:21:11;;;;;;;91.07;47.40;;;;;;;5.41;100.00;67371.16;4928416;28;20059;-83
2022/11/30 08:23:39;;;;;;;86.80;44.45;;;;;;;5.45;100.00;67380.94;4941130;28;20047;-84
2022/11/30 08:26:06;;;;;;;83.88;46.20;;;;;;;;;;4945975;28;20059;-84
2022/11/30 08:28:37;;;;;;;79.00;45.08;;;;;;;;;;4946092;28;20051;-84
2022/11/30 08:31:05;;;;;;;84.70;46.08;;;;;;;5.45;100.00;67375.09;4942037;28;20513;-84
2022/11/30 08:33:31;;;;;;;80.38;45.78;;;;;;;5.46;100.00;67376.22;4947580;28;20134;-84
2022/11/30 08:36:11;;;;;;;77.65;44.97;;;;;;;5.47;100.00;67377.94;4949520;28;20522;-84
2022/11/30 08:38:38;;;;;;;81.13;44.55;;;;;;;5.49;100.00;67380.19;4948533;28;20486;-84
2022/11/30 08:41:04;;;;;;;75.95;43.00;;;;;;;5.50;100.00;67386.59;4950063;28;20099;-85
2022/11/30 08:43:30;;;;;;;77.45;43.85;;;;;;;5.50;100.00;67381.31;4949509;28;20040;-84
2022/11/30 08:45:56;;;;;;;78.05;43.95;;;;;;;5.50;100.00;67381.31;4946741;28;20066;-84
2022/11/30 08:48:21;;;;;;;76.18;44.03;;;;;;;5.52;100.00;67383.56;4948768;28;20066;-84
2022/11/30 08:50:47;;;;;;;76.07;38.00;;;;;;;;;;4980362;28;20494;-84
2022/11/30 08:53:12;;;;;;;78.32;42.72;;;;;;;5.54;100.00;67390.56;4948972;28;20307;-84
2022/11/30 08:55:37;;;;;;;73.47;41.97;;;;;;;5.54;100.00;67390.56;4946481;28;20495;-84
2022/11/30 08:58:03;;;;;;;79.22;44.20;;;;;;;5.56;100.00;67388.09;4949014;28;20039;-83
2022/11/30 09:00:29;;;;;;;78.18;42.13;;;;;;;5.55;100.00;67386.41;4948638;28;20375;-84
2022/11/30 09:02:54;;;;;;;73.72;41.72;;;;;;;;;;4951483;28;20395;-84
2022/11/30 09:05:20;;;;;;;75.30;40.28;;;;;;;;;;4989213;28;20075;-84
2022/11/30 09:07:45;;;;;;;74.68;43.22;;;;;;;5.54;100.00;67385.84;4949697;28;20054;-84
2022/11/30 09:10:11;;;;;;;77.03;41.47;;;;;;;5.58;100.00;67390.38;4963748;28;20501;-85
2022/11/30 09:12:37;;;;;;;74.65;42.55;;;;;;;;;;4948335;28;20557;-84
2022/11/30 09:15:04;;;;;;;74.60;42.30;;;;;;;5.57;100.00;67389.22;4949901;28;20134;-84
2022/11/30 09:17:29;;;;;;;76.45;43.00;;;;;;;5.61;100.00;67399.03;4948814;28;20048;-85
2022/11/30 09:19:54;;;;;;;71.07;37.50;;;;;;;;;;4980445;28;20043;-84
2022/11/30 09:22:20;;;;;;;70.75;40.10;;;;;;;;;;4948889;28;20139;-83
2022/11/30 09:24:45;;;;;;;69.25;39.38;;;;;;;5.64;100.00;67396.56;4964672;28;20411;-84
2022/11/30 09:27:10;;;;;;;64.97;38.70;;;;;;;5.64;100.00;67396.56;4962137;28;20424;-84
2022/11/30 09:29:36;;;;;;;67.50;41.25;;;;;;;;;;4948570;28;20035;-84
2022/11/30 09:32:01;;;;;;;69.97;40.58;;;;;;;;;;4958458;28;20094;-84
2022/11/30 09:34:26;;;;;;;69.93;42.42;;;;;;;;;;4947550;28;20102;-84
2022/11/30 09:36:51;;;;;;;67.50;39.30;;;;;;;;;;4947775;28;20043;-84
2022/11/30 09:39:17;;;;;;;67.85;41.40;;;;;;;;;;4947541;28;20476;-84
2022/11/30 09:41:52;;;;;;;67.80;40.63;;;;;;;5.61;100.00;67391.13;4947825;28;20043;-84
2022/11/30 09:44:49;;;;;;;67.55;42.70;;;;;;;5.64;100.00;67401.84;4940826;28;20045;-84
2022/11/30 09:47:46;;;;;;;65.35;40.42;;;;;;;5.59;100.00;67391.47;4947752;28;20411;-84
2022/11/30 09:50:14;;;;;;;73.30;47.40;;;;;;;5.61;100.00;67391.13;4948196;28;20073;-84
2022/11/30 09:52:41;;;;;;;60.08;38.03;;;;;;;;;;4947155;28;20059;-84
2022/11/30 09:55:08;;;;;;;61.97;38.95;;;;;;;;;;4946781;28;20047;-84
2022/11/30 09:57:36;;;;;;;56.67;38.55;;;;;;;;;;4948039;28;20055;-84
2022/11/30 10:00:03;;;;;;;55.67;36.10;;;;;;;;;;4948138;28;20039;-84
2022/11/30 10:02:30;;;;;;;64.50;40.55;;;;;;;;;;4947406;28;20086;-84
2022/11/30 10:04:56;;;;;;;58.83;39.83;;;;;;;;;;4947276;28;20043;-84
2022/11/30 10:07:27;;;;;;;54.10;37.15;;;;;;;;;;4947256;28;20113;-84
2022/11/30 10:10:02;;;;;;;54.25;35.38;;;;;;;;;;4947564;28;20532;-84
2022/11/30 10:12:38;;;;;;;52.65;33.25;;;;;;;5.74;100.00;67413.16;4947314;28;20523;-84
2022/11/30 10:15:12;;;;;;;49.80;32.70;;;;;;;;;;4948962;28;20110;-84
2022/11/30 10:18:06;;;;;;;51.08;33.35;;;;;;;5.65;100.00;67397.69;4948376;28;20054;-84
2022/11/30 10:20:59;;;;;;;51.25;34.00;;;;;;;5.69;100.00;67407.50;4951491;28;20098;-84
2022/11/30 10:23:35;;;;;;;51.35;34.15;;;;;;;5.72;100.00;67410.31;4951337;28;20050;-84
2022/11/30 10:26:14;;;;;;;48.28;30.70;;;;;;;;;;4951539;28;20051;-84
2022/11/30 10:28:50;;;;;;;48.80;33.88;;;;;;;5.72;100.00;67402.41;4950143;28;20145;-84
2022/11/30 10:31:17;;;;;;;47.38;28.17;;;;;;;;;;4950119;28;20503;-83
2022/11/30 10:33:45;;;;;;;46.78;30.75;;;;;;;;;;4950355;28;20051;-84
2022/11/30 10:36:24;;;;;;;47.45;30.77;;;;;;;;;;4950705;28;20059;-84
2022/11/30 10:38:53;;;;;;;44.53;30.77;;;;;;;5.73;100.00;67412.03;4934182;28;20074;-84
2022/11/30 10:41:43;;;;;;;;;;;;;;;5.71;100.00;67404.47;4950124;28;20050;-84
2022/11/30 10:44:29;;;;;;;44.95;30.13;;;;;;;;;;4950971;28;19960;-84
2022/11/30 10:47:04;;;;;;;45.63;30.23;;;;;;;5.60;100.00;67400.53;4950579;28;20406;-84
2022/11/30 10:49:31;;;;;;;44.42;31.98;;;;;;;5.60;100.00;67389.41;4950398;28;20118;-84
2022/11/30 10:52:04;;;;;;;50.03;31.20;;;;;;;5.63;100.00;67396.00;4951343;28;20043;-84
2022/11/30 10:54:31;;;;;;;47.63;31.23;;;;;;;5.63;100.00;67400.72;4950614;28;20039;-84
2022/11/30 10:57:00;;;;;;;48.53;32.53;;;;;;;5.64;100.00;67397.13;4950082;28;20055;-84
2022/11/30 10:59:46;;;;;;;46.17;31.65;;;;;;;5.68;100.00;67408.44;4950687;28;20043;-84
2022/11/30 11:02:35;;;;;;;50.15;30.55;;;;;;;5.65;100.00;67398.25;4952394;28;20121;-84
2022/11/30 11:05:08;;;;;;;46.72;31.55;;;;;;;5.59;100.00;67396.75;4947792;28;20040;-84
2022/11/30 11:07:46;;;;;;;56.60;34.45;;;;;;;5.59;100.00;67391.47;4952495;28;20055;-83
2022/11/30 11:10:14;;;;;;;48.72;31.75;;;;;;;;;;4966254;28;20042;-83
2022/11/30 11:12:46;;;;;;;47.47;28.10;;;;;;;5.61;100.00;67393.75;4952554;28;20094;-83
2022/11/30 11:15:19;;;;;;;45.72;29.75;;;;;;;5.66;100.00;67404.66;4952229;28;20577;-83
2022/11/30 11:17:45;;;;;;;42.67;28.75;;;;;;;;;;4939631;28;20332;-84
2022/11/30 11:20:33;;;;;;;43.28;28.25;;;;;;;5.65;100.00;67397.69;4946095;28;20043;-84
2022/11/30 11:22:59;;;;;;;44.65;27.63;;;;;;;5.64;100.00;67394.50;4947847;28;20047;-83
2022/11/30 11:25:31;;;;;;;44.53;29.98;;;;;;;5.69;100.00;67401.66;4949604;28;20050;-83
2022/11/30 11:28:14;;;;;;;45.70;29.25;;;;;;;5.70;100.00;67408.63;4950853;28;20039;-83
2022/11/30 11:30:39;;;;;;;46.67;28.70;;;;;;;;;;4949942;28;20054;-84
2022/11/30 11:33:10;;;;;;;49.20;30.35;;;;;;;5.72;100.00;67405.03;4949903;28;20130;-83
2022/11/30 11:35:38;;;;;;;49.78;31.10;;;;;;;;;;4954299;28;20059;-83
2022/11/30 11:38:20;;;;;;;47.28;29.05;;;;;;;5.76;100.00;67410.13;4959752;28;20046;-83
2022/11/30 11:41:01;;;;;;;51.47;30.55;;;;;;;5.76;100.00;67409.56;4981351;28;20073;-83
2022/11/30 11:43:29;;;;;;;57.22;35.08;;;;;;;5.69;100.00;67406.94;4954889;28;20043;-82
2022/11/30 11:45:56;;;;;;;46.85;30.42;;;;;;;;;;4957505;28;20036;-83
2022/11/30 11:48:34;;;;;;;50.08;30.67;;;;;;;5.70;100.00;67408.63;4958870;28;20043;-83
2022/11/30 11:51:07;;;;;;;50.90;31.73;;;;;;;5.72;100.00;67402.41;4973212;28;20065;-84
2022/11/30 11:53:42;;;;;;;50.03;29.40;;;;;;;5.76;100.00;67409.56;4962071;28;20039;-84
2022/11/30 11:56:19;;;;;;;48.80;30.48;;;;;;;;;;4959780;28;20043;-84
2022/11/30 11:58:44;;;;;;;59.10;37.42;;;;;;;;;;4973457;28;20142;-84
2022/11/30 12:01:18;;;;;;;175.10;71.93;;;;;;;5.83;100.00;67418.03;4957724;28;20089;-84
2022/11/30 12:04:01;;;;;;;192.43;77.65;;;;;;;5.82;100.00;67416.34;4957141;28;20330;-84
2022/11/30 12:06:28;;;;;;;50.85;28.60;;;;;;;;;;4970590;28;20051;-84
2022/11/30 12:09:01;;;;;;;46.10;31.08;;;;;;;5.73;100.00;67406.75;4958731;28;20063;-84
2022/11/30 12:11:36;;;;;;;62.55;41.53;;;;;;;5.71;100.00;67401.28;4955870;28;20423;-84
2022/11/30 12:14:08;;;;;;;51.10;34.25;;;;;;;5.73;100.00;67406.19;4954275;28;20185;-83
2022/11/30 12:16:42;;;;;;;49.58;30.50;;;;;;;;;;4954093;28;20178;-83
2022/11/30 12:19:20;;;;;;;51.45;32.50;;;;;;;5.71;100.00;67403.91;4956836;28;20099;-84
2022/11/30 12:21:45;;;;;;;56.45;34.22;;;;;;;;;;4934516;29;20110;-83